Time;durP1;ratioP1;P1;durP2;ratioP2;P2;SDS_P1;SDS_P2;PMS_P1;PMS_P2;Temp;Humidity;BMP_temperature;BMP_pressure;BME280_temperature;BME280_humidity;BME280_pressure;Samples;Min_cycle;Max_cycle;Signal;HPM_P1;HPM_P2
2022/01/24 00:01:39;;;;;;;39.75;25.52;;;;;;;4.38;100.00;103003.00;4966758;28;20138;-86
2022/01/24 00:04:11;;;;;;;42.17;27.20;;;;;;;4.37;100.00;102998.59;4959357;28;20047;-86
2022/01/24 00:06:42;;;;;;;43.95;29.23;;;;;;;4.35;100.00;103004.00;4962639;28;20042;-85
2022/01/24 00:09:13;;;;;;;40.78;27.13;;;;;;;4.34;100.00;103006.72;4981882;28;20085;-86
2022/01/24 00:11:49;;;;;;;41.80;25.98;;;;;;;4.31;100.00;103002.41;4979330;28;20132;-86
2022/01/24 00:17:07;;;;;;;37.05;23.50;;;;;;;4.26;100.00;103005.28;4980715;28;20041;-85
2022/01/24 00:27:54;;;;;;;39.97;26.27;;;;;;;4.26;100.00;102997.31;5002964;28;20096;-85
2022/01/24 00:30:21;;;;;;;37.25;24.38;;;;;;;4.29;100.00;102988.34;4995186;28;20069;-85
2022/01/24 00:32:48;;;;;;;35.90;24.25;;;;;;;4.32;100.00;102988.19;4995565;28;20046;-85
2022/01/24 00:35:15;;;;;;;38.38;22.00;;;;;;;4.36;100.00;102983.59;4976447;28;20054;-85
2022/01/24 00:37:42;;;;;;;34.30;24.75;;;;;;;4.38;100.00;102981.75;4998184;28;20072;-86
2022/01/24 00:40:10;;;;;;;32.42;21.92;;;;;;;4.39;100.00;102979.00;4972023;28;20144;-85
2022/01/24 00:42:56;;;;;;;29.15;19.63;;;;;;;4.38;100.00;102982.59;4982217;28;20096;-86
2022/01/24 00:54:02;;;;;;;30.02;21.52;;;;;;;4.40;100.00;102985.16;5009811;28;20053;-85
2022/01/24 00:56:28;;;;;;;26.58;17.90;;;;;;;4.37;100.00;102986.16;4987745;28;20058;-85
2022/01/24 00:58:53;;;;;;;26.00;18.33;;;;;;;4.37;100.00;102990.63;4994653;28;20046;-83
2022/01/24 01:01:21;;;;;;;27.10;18.20;;;;;;;4.39;100.00;102994.94;4997506;28;20046;-85
2022/01/24 01:03:48;;;;;;;25.40;17.92;;;;;;;4.38;100.00;102987.91;4991966;28;20705;-85
2022/01/24 01:06:15;;;;;;;29.33;18.27;;;;;;;4.41;100.00;102981.59;4999753;28;20034;-87
2022/01/24 01:19:42;;;;;;;28.17;20.95;;;;;;;4.35;100.00;102981.88;4978176;28;20044;-86
2022/01/24 01:22:07;;;;;;;31.38;20.55;;;;;;;4.36;100.00;102983.59;4992104;28;20038;-86
2022/01/24 01:24:38;;;;;;;31.52;19.38;;;;;;;4.33;100.00;102978.41;4993828;28;20068;-86
2022/01/24 01:27:10;;;;;;;32.75;20.67;;;;;;;4.32;100.00;102980.22;4999406;28;20515;-86
2022/01/24 01:29:49;;;;;;;29.65;21.70;;;;;;;4.34;100.00;102974.81;4994082;28;20070;-87
2022/01/24 01:32:28;;;;;;;28.95;19.63;;;;;;;4.33;100.00;102981.94;4993899;28;20426;-86
2022/01/24 01:55:56;;;;;;;29.05;21.27;;;;;;;4.27;100.00;102975.09;5010675;28;20038;-85
2022/01/24 01:58:23;;;;;;;27.88;19.55;;;;;;;4.27;100.00;102967.13;5001881;28;20072;-85
2022/01/24 02:00:51;;;;;;;26.02;16.80;;;;;;;4.24;100.00;102963.75;4991799;28;20042;-86
2022/01/24 02:03:17;;;;;;;24.50;19.63;;;;;;;4.31;100.00;102970.50;5024703;28;20107;-86
2022/01/24 02:05:43;;;;;;;26.17;18.30;;;;;;;4.28;100.00;102963.53;4998170;28;20038;-86
2022/01/24 02:08:09;;;;;;;23.88;16.48;;;;;;;4.28;100.00;102965.34;5001957;28;20038;-85
2022/01/24 02:10:37;;;;;;;23.90;18.40;;;;;;;4.29;100.00;102965.28;4982550;28;20574;-86
2022/01/24 02:13:04;;;;;;;25.85;16.67;;;;;;;4.27;100.00;102968.94;4994018;28;20042;-86
2022/01/24 02:15:44;;;;;;;24.10;16.65;;;;;;;4.29;100.00;102977.72;4994585;28;20046;-86
2022/01/24 02:25:53;;;;;;;22.27;15.85;;;;;;;4.23;100.00;102962.00;5008491;28;20390;-86
2022/01/24 02:28:21;;;;;;;18.80;14.35;;;;;;;4.22;100.00;102957.66;4994794;28;20046;-86
2022/01/24 02:33:16;;;;;;;20.20;13.95;;;;;;;4.19;100.00;102960.44;5011625;28;20129;-86
2022/01/24 02:35:42;;;;;;;22.70;16.20;;;;;;;4.17;100.00;102963.19;4995771;28;20456;-86
2022/01/24 02:38:19;;;;;;;20.58;13.80;;;;;;;4.18;100.00;102953.41;5011696;28;20121;-85
2022/01/24 02:45:59;;;;;;;20.88;16.15;;;;;;;4.21;100.00;102950.63;4997159;28;20061;-86
2022/01/24 02:48:57;;;;;;;25.02;17.02;;;;;;;4.18;100.00;102948.97;5000729;28;20052;-87
2022/01/24 02:51:39;;;;;;;26.02;18.98;;;;;;;4.20;100.00;102949.75;4974433;28;20046;-87
2022/01/24 02:54:05;;;;;;;25.73;19.30;;;;;;;4.19;100.00;102944.50;4977594;28;20465;-86
2022/01/24 02:56:31;;;;;;;23.55;17.95;;;;;;;4.20;100.00;102947.09;5005818;28;20088;-85
2022/01/24 02:58:56;;;;;;;21.20;15.57;;;;;;;4.21;100.00;102947.97;4991989;28;20074;-86
2022/01/24 03:01:22;;;;;;;24.48;16.67;;;;;;;4.20;100.00;102940.91;5007432;28;20062;-85
2022/01/24 03:03:47;;;;;;;21.83;15.63;;;;;;;4.19;100.00;102937.38;4975906;28;20038;-85
2022/01/24 03:06:12;;;;;;;25.33;16.35;;;;;;;4.21;100.00;102940.84;4993397;28;20486;-86
2022/01/24 03:08:40;;;;;;;24.25;17.48;;;;;;;4.19;100.00;102926.75;5007187;28;20458;-86
2022/01/24 03:11:06;;;;;;;24.88;17.08;;;;;;;4.18;100.00;102933.00;5012705;28;20053;-86
2022/01/24 03:13:34;;;;;;;23.40;16.23;;;;;;;4.18;100.00;102932.16;4994766;28;20125;-86
2022/01/24 03:16:04;;;;;;;22.70;16.60;;;;;;;4.20;100.00;102932.94;5007111;28;20038;-86
2022/01/24 03:18:30;;;;;;;21.73;15.88;;;;;;;4.16;100.00;102926.91;4992686;28;20558;-87
2022/01/24 03:20:55;;;;;;;22.48;16.08;;;;;;;4.15;100.00;102927.84;4978765;28;20046;-85
2022/01/24 03:23:23;;;;;;;24.60;17.42;;;;;;;4.14;100.00;102918.13;5009739;28;20046;-87
2022/01/24 03:25:48;;;;;;;25.98;17.10;;;;;;;4.10;100.00;102924.53;5010921;28;20044;-87
2022/01/24 03:28:13;;;;;;;23.80;17.02;;;;;;;4.09;100.00;102917.50;4997945;28;20410;-85
2022/01/24 03:30:41;;;;;;;25.85;17.92;;;;;;;4.09;100.00;102920.16;4996963;28;20746;-86
2022/01/24 03:33:11;;;;;;;21.90;15.20;;;;;;;4.06;100.00;102920.28;5001103;28;20042;-86
2022/01/24 03:35:40;;;;;;;24.05;17.55;;;;;;;4.09;100.00;102927.28;5012140;28;20105;-86
2022/01/24 03:38:07;;;;;;;25.63;17.02;;;;;;;4.05;100.00;102929.19;5001062;28;20065;-86
2022/01/24 03:40:35;;;;;;;26.30;17.17;;;;;;;4.01;100.00;102924.94;4998758;28;20046;-86
2022/01/24 03:43:05;;;;;;;19.63;14.98;;;;;;;4.00;100.00;102923.19;4965380;28;20487;-87
2022/01/24 03:45:42;;;;;;;23.20;16.48;;;;;;;4.02;100.00;102935.50;5005313;28;20046;-86
2022/01/24 03:48:30;;;;;;;22.85;15.95;;;;;;;4.01;100.00;102924.94;4991943;28;20487;-86
2022/01/24 03:50:55;;;;;;;21.38;15.82;;;;;;;3.98;100.00;102936.56;4995547;28;20081;-86
2022/01/24 03:53:23;;;;;;;22.15;16.70;;;;;;;3.97;100.00;102931.31;5013546;28;20061;-86
2022/01/24 03:55:50;;;;;;;22.02;15.68;;;;;;;3.96;100.00;102926.94;4985779;28;20080;-86
2022/01/24 03:58:16;;;;;;;20.40;14.55;;;;;;;3.92;100.00;102925.38;5003096;28;20136;-86
2022/01/24 04:00:42;;;;;;;19.52;14.73;;;;;;;3.89;100.00;102926.38;5001328;28;20566;-85
2022/01/24 04:03:14;;;;;;;18.88;13.25;;;;;;;3.89;100.00;102930.81;4997023;28;20046;-86
2022/01/24 04:05:43;;;;;;;19.80;15.20;;;;;;;3.92;100.00;102934.19;4983080;28;20042;-86
2022/01/24 04:08:18;;;;;;;21.58;15.50;;;;;;;3.90;100.00;102922.78;4987449;28;20129;-86
2022/01/24 04:10:50;;;;;;;19.35;12.88;;;;;;;3.87;100.00;102924.72;5001033;28;20045;-86
2022/01/24 04:13:29;;;;;;;19.02;14.18;;;;;;;3.86;100.00;102923.00;4993026;28;20040;-85
2022/01/24 04:16:51;;;;;;;19.30;15.60;;;;;;;3.93;100.00;102916.47;5000678;28;20097;-86
2022/01/24 04:18:59;;;;;;;17.35;14.82;;;;;;;3.94;100.00;102920.81;5016954;28;20108;-85
2022/01/24 04:21:30;;;;;;;19.08;14.00;;;;;;;3.92;100.00;102928.03;5003917;28;20164;-86
2022/01/24 04:24:08;;;;;;;20.92;15.65;;;;;;;3.94;100.00;102931.44;5022793;28;20066;-85
2022/01/24 04:26:40;;;;;;;18.10;13.40;;;;;;;3.96;100.00;102929.59;5001462;28;20050;-87
2022/01/24 04:29:07;;;;;;;19.55;14.65;;;;;;;3.99;100.00;102929.47;4983783;28;20487;-86
2022/01/24 04:31:48;;;;;;;19.45;15.27;;;;;;;3.99;100.00;102934.78;4999831;28;20140;-85
2022/01/24 04:34:13;;;;;;;21.95;16.40;;;;;;;3.93;100.00;102932.41;5000068;28;20125;-86
2022/01/24 04:36:40;;;;;;;19.48;14.57;;;;;;;3.91;100.00;102934.25;5002885;28;20042;-85
2022/01/24 04:39:14;;;;;;;22.25;15.13;;;;;;;3.91;100.00;102931.59;4994170;28;20507;-85
2022/01/24 04:41:44;;;;;;;19.83;14.10;;;;;;;3.90;100.00;102944.03;4991500;28;20096;-86
2022/01/24 04:52:48;;;;;;;20.48;16.35;;;;;;;3.99;100.00;102930.31;4980328;28;20077;-87
2022/01/24 04:55:33;;;;;;;21.15;16.58;;;;;;;3.93;100.00;102927.09;5006768;28;20065;-86
2022/01/24 04:57:59;;;;;;;21.55;15.30;;;;;;;3.95;100.00;102930.53;5018323;28;20197;-85
2022/01/24 05:00:25;;;;;;;19.77;14.82;;;;;;;3.97;100.00;102923.34;4981305;28;20129;-85
2022/01/24 05:02:53;;;;;;;21.40;16.52;;;;;;;4.00;100.00;102925.84;5002600;28;20049;-86
2022/01/24 05:05:27;;;;;;;19.83;15.65;;;;;;;3.96;100.00;102922.50;4968225;28;20125;-86
2022/01/24 05:08:03;;;;;;;21.90;16.25;;;;;;;3.97;100.00;102912.72;4997052;28;20050;-87
2022/01/24 05:10:49;;;;;;;20.40;14.70;;;;;;;3.95;100.00;102915.47;4971030;28;20126;-86
2022/01/24 05:24:05;;;;;;;20.58;15.40;;;;;;;3.97;100.00;102915.38;5001099;28;20482;-85
2022/01/24 05:26:31;;;;;;;23.65;15.65;;;;;;;3.96;100.00;102914.50;4999350;28;20065;-87
2022/01/24 05:29:06;;;;;;;22.73;16.80;;;;;;;3.97;100.00;102924.22;5001935;28;20046;-87
2022/01/24 05:31:37;;;;;;;22.65;17.52;;;;;;;4.01;100.00;102924.94;4985979;28;20064;-86
2022/01/24 05:34:05;;;;;;;24.10;17.48;;;;;;;3.98;100.00;102919.78;4972128;28;20135;-86
2022/01/24 05:36:31;;;;;;;25.20;17.02;;;;;;;3.92;100.00;102912.94;4971668;28;20129;-86
2022/01/24 05:39:01;;;;;;;24.33;17.80;;;;;;;3.96;100.00;102917.16;4987610;28;20061;-86
2022/01/24 05:41:36;;;;;;;23.42;16.08;;;;;;;3.91;100.00;102924.47;5002823;28;20133;-86
2022/01/24 05:44:09;;;;;;;24.80;18.13;;;;;;;3.96;100.00;102924.28;4999709;28;20047;-85
2022/01/24 05:46:39;;;;;;;25.05;20.02;;;;;;;3.95;100.00;102915.47;4989798;28;20072;-86
2022/01/24 05:49:05;;;;;;;26.42;20.27;;;;;;;3.94;100.00;102915.50;4980584;28;20517;-86
2022/01/24 05:51:33;;;;;;;24.25;18.08;;;;;;;3.93;100.00;102921.78;5000274;28;20432;-85
2022/01/24 05:54:07;;;;;;;25.33;19.02;;;;;;;3.91;100.00;102920.97;5009266;28;20054;-85
2022/01/24 05:56:32;;;;;;;26.13;19.70;;;;;;;3.91;100.00;102915.66;4973199;28;20050;-85
2022/01/24 05:58:58;;;;;;;28.80;19.08;;;;;;;3.88;100.00;102913.13;5004539;28;20046;-85
2022/01/24 06:01:24;;;;;;;27.45;20.20;;;;;;;3.87;100.00;102920.25;4990065;28;20052;-86
2022/01/24 06:03:51;;;;;;;26.63;18.77;;;;;;;3.86;100.00;102920.34;4981313;28;20085;-86
2022/01/24 06:06:17;;;;;;;27.08;20.63;;;;;;;3.86;100.00;102920.34;5021942;28;20117;-86
2022/01/24 06:08:48;;;;;;;27.60;19.60;;;;;;;3.84;100.00;102921.25;5000876;28;20450;-86
2022/01/24 06:11:24;;;;;;;28.08;20.35;;;;;;;3.85;100.00;102916.78;5007999;28;20111;-85
2022/01/24 06:13:52;;;;;;;29.52;20.85;;;;;;;3.83;100.00;102916.88;4995318;28;20053;-86
2022/01/24 06:16:31;;;;;;;28.90;20.30;;;;;;;3.83;100.00;102910.72;5008594;28;20549;-86
2022/01/24 06:18:57;;;;;;;30.75;20.70;;;;;;;3.80;100.00;102917.00;5014612;28;20054;-86
2022/01/24 06:21:23;;;;;;;28.23;21.08;;;;;;;3.79;100.00;102920.59;5003286;28;20046;-86
2022/01/24 06:23:59;;;;;;;27.50;21.25;;;;;;;3.81;100.00;102918.72;4990163;28;20053;-87
2022/01/24 06:26:32;;;;;;;30.40;22.70;;;;;;;3.78;100.00;102921.53;4995756;28;20134;-86
2022/01/24 06:29:02;;;;;;;28.63;22.42;;;;;;;3.79;100.00;102925.91;5001900;28;20050;-86
2022/01/24 06:31:36;;;;;;;29.00;21.55;;;;;;;3.80;100.00;102927.66;5005682;28;20871;-86
2022/01/24 06:34:19;;;;;;;38.00;27.70;;;;;;;3.79;100.00;102923.25;5000307;28;20100;-87
2022/01/24 06:36:44;;;;;;;27.02;19.80;;;;;;;3.80;100.00;102926.78;5007336;28;20134;-86
2022/01/24 06:39:11;;;;;;;28.40;19.95;;;;;;;3.81;100.00;102925.84;5000834;28;20042;-86
2022/01/24 06:41:38;;;;;;;28.58;21.52;;;;;;;3.82;100.00;102925.75;4986511;28;20046;-87
2022/01/24 06:44:13;;;;;;;34.03;22.17;;;;;;;3.81;100.00;102929.34;4970541;28;20559;-86
2022/01/24 06:46:40;;;;;;;29.23;20.08;;;;;;;3.77;100.00;102922.47;4993923;28;20050;-88
2022/01/24 06:49:09;;;;;;;30.30;21.88;;;;;;;3.76;100.00;102920.72;4990646;28;20129;-87
2022/01/24 06:51:37;;;;;;;30.92;21.63;;;;;;;3.77;100.00;102917.16;5003169;28;20161;-87
2022/01/24 06:54:03;;;;;;;30.27;22.40;;;;;;;3.79;100.00;102920.59;5000767;28;20084;-88
2022/01/24 06:56:36;;;;;;;30.08;21.63;;;;;;;3.78;100.00;102929.50;4971253;28;20514;-87
2022/01/24 06:59:02;;;;;;;32.28;23.30;;;;;;;3.77;100.00;102922.47;4973641;28;20125;-87
2022/01/24 07:01:29;;;;;;;31.10;20.95;;;;;;;3.69;100.00;102929.91;4998590;28;20053;-88
2022/01/24 07:04:03;;;;;;;31.15;23.38;;;;;;;3.73;100.00;102938.59;4985528;28;20132;-87
2022/01/24 07:06:30;;;;;;;30.33;22.15;;;;;;;3.74;100.00;102941.19;5002277;28;20125;-87
2022/01/24 07:09:03;;;;;;;30.27;21.35;;;;;;;3.77;100.00;102940.16;4984424;28;20577;-88
2022/01/24 07:11:30;;;;;;;36.13;23.08;;;;;;;3.72;100.00;102940.38;5003067;28;20042;-87
2022/01/24 07:14:06;;;;;;;30.38;22.38;;;;;;;3.71;100.00;102938.69;5000700;28;20098;-87
2022/01/24 07:17:00;;;;;;;30.10;22.05;;;;;;;3.72;100.00;102940.38;4998473;28;20081;-89
2022/01/24 07:19:23;;;;;;;31.15;21.48;;;;;;;3.66;100.00;102956.59;4998660;28;20066;-88
2022/01/24 07:21:59;;;;;;;30.42;22.85;;;;;;;3.61;100.00;102953.28;4995641;28;20046;-85
2022/01/24 07:24:26;;;;;;;33.50;22.92;;;;;;;3.61;100.00;102955.94;5006276;28;20569;-87
2022/01/24 07:26:55;;;;;;;31.60;20.88;;;;;;;3.57;100.00;102962.31;4998533;28;20038;-88
2022/01/24 07:29:22;;;;;;;33.53;22.63;;;;;;;3.56;100.00;102964.06;5002957;28;20076;-86
2022/01/24 07:31:49;;;;;;;32.20;23.48;;;;;;;3.55;100.00;102964.16;4995899;28;20049;-88
2022/01/24 07:34:15;;;;;;;30.85;22.92;;;;;;;3.55;100.00;102961.50;5006516;28;20046;-87
2022/01/24 07:36:48;;;;;;;30.88;22.38;;;;;;;3.54;100.00;102959.75;4998798;28;20046;-88
2022/01/24 07:39:21;;;;;;;32.95;24.20;;;;;;;3.53;100.00;102958.03;4991004;28;20084;-87
2022/01/24 07:41:47;;;;;;;30.67;20.10;;;;;;;3.49;100.00;102956.47;4998370;28;20049;-88
2022/01/24 07:44:17;;;;;;;33.28;22.23;;;;;;;3.52;100.00;102957.19;4996082;28;20529;-86
2022/01/24 07:46:44;;;;;;;30.75;22.95;;;;;;;3.57;100.00;102963.16;5001343;28;20045;-88
2022/01/24 07:49:11;;;;;;;30.17;22.55;;;;;;;3.58;100.00;102964.03;4991257;28;20085;-89
2022/01/24 07:51:40;;;;;;;33.55;23.42;;;;;;;3.56;100.00;102965.88;4987920;28;20088;-87
2022/01/24 07:54:08;;;;;;;31.45;21.17;;;;;;;3.52;100.00;102965.16;4987847;28;20096;-87
2022/01/24 07:56:34;;;;;;;31.40;21.85;;;;;;;3.52;100.00;102956.31;4990801;28;20070;-88
2022/01/24 07:59:00;;;;;;;33.10;22.85;;;;;;;3.56;100.00;102958.75;4991024;28;20982;-89
2022/01/24 08:01:33;;;;;;;30.92;22.52;;;;;;;3.55;100.00;102961.50;5002061;28;20037;-87
2022/01/24 08:03:59;;;;;;;29.02;19.75;;;;;;;3.53;100.00;102961.56;4999851;28;20057;-86
2022/01/24 08:06:27;;;;;;;30.20;21.08;;;;;;;3.51;100.00;102965.19;4989725;28;20042;-88
2022/01/24 08:08:55;;;;;;;31.77;23.25;;;;;;;3.57;100.00;102955.19;5001418;28;20407;-88
2022/01/24 08:11:31;;;;;;;31.02;23.15;;;;;;;3.58;100.00;102954.25;4996031;28;20046;-87
2022/01/24 08:14:05;;;;;;;31.85;21.55;;;;;;;3.60;100.00;102956.88;5010213;28;20098;-88
2022/01/24 08:16:57;;;;;;;32.03;23.65;;;;;;;3.61;100.00;102945.31;5003852;28;20049;-88
2022/01/24 08:19:32;;;;;;;32.33;22.17;;;;;;;3.62;100.00;102957.63;5004888;28;20100;-87
2022/01/24 08:22:02;;;;;;;32.08;23.38;;;;;;;3.61;100.00;102954.13;5004725;28;20042;-87
2022/01/24 08:24:28;;;;;;;73.05;43.30;;;;;;;3.68;100.00;102965.34;4990415;28;20076;-86
2022/01/24 08:26:54;;;;;;;33.05;23.88;;;;;;;3.63;100.00;102951.41;4996097;28;20070;-87
2022/01/24 08:29:23;;;;;;;30.77;20.13;;;;;;;3.64;100.00;102955.78;5001438;28;20211;-87
2022/01/24 08:31:49;;;;;;;29.40;20.33;;;;;;;3.61;100.00;102962.09;5008007;28;20095;-88
2022/01/24 08:34:26;;;;;;;36.90;25.52;;;;;;;3.66;100.00;102961.91;5004465;28;20045;-87
2022/01/24 08:37:14;;;;;;;30.55;22.20;;;;;;;3.66;100.00;102961.91;4999282;28;20058;-87
2022/01/24 08:39:44;;;;;;;30.15;22.90;;;;;;;3.67;100.00;102958.31;5016970;28;20116;-88
2022/01/24 08:42:26;;;;;;;31.35;23.27;;;;;;;3.71;100.00;102953.72;5013886;28;20058;-87
2022/01/24 08:47:37;;;;;;;29.90;18.75;;;;;;;3.64;100.00;102954.94;4996256;28;20435;-87
2022/01/24 08:50:06;;;;;;;27.88;17.42;;;;;;;3.63;100.00;102956.72;5008327;28;20061;-87
2022/01/24 08:52:38;;;;;;;29.58;21.25;;;;;;;3.68;100.00;102949.41;4992864;28;20056;-88
2022/01/24 08:55:03;;;;;;;23.80;18.15;;;;;;;3.73;100.00;102960.69;5005451;28;20187;-87
2022/01/24 08:57:30;;;;;;;28.02;19.90;;;;;;;3.82;100.00;102957.63;5009549;28;20152;-86
2022/01/24 09:00:02;;;;;;;27.52;19.95;;;;;;;3.85;100.00;102959.28;4974451;28;20056;-86
2022/01/24 09:02:29;;;;;;;26.20;19.50;;;;;;;3.86;100.00;102962.84;4987934;28;20034;-88
2022/01/24 09:04:55;;;;;;;27.83;19.92;;;;;;;3.90;100.00;102956.44;4997332;28;20050;-87
2022/01/24 09:07:21;;;;;;;26.40;19.38;;;;;;;3.93;100.00;102958.97;5005247;28;20133;-87
2022/01/24 09:09:52;;;;;;;26.40;18.98;;;;;;;3.90;100.00;102959.09;4968192;28;20134;-88
2022/01/24 09:12:18;;;;;;;28.05;19.15;;;;;;;3.93;100.00;102964.28;4996824;28;20050;-87
2022/01/24 09:14:47;;;;;;;27.33;19.90;;;;;;;3.95;100.00;102963.28;4990112;28;20038;-87
2022/01/24 09:17:14;;;;;;;29.02;20.55;;;;;;;3.96;100.00;102966.78;5018453;28;20049;-88
2022/01/24 09:19:40;;;;;;;27.67;19.48;;;;;;;3.95;100.00;102957.09;4997356;28;20073;-88
2022/01/24 09:22:09;;;;;;;26.55;19.08;;;;;;;4.03;100.00;102968.25;5008652;28;20054;-86
2022/01/24 09:24:36;;;;;;;29.02;20.48;;;;;;;4.07;100.00;102968.03;5001609;28;20054;-87
2022/01/24 09:27:03;;;;;;;27.00;20.25;;;;;;;4.08;100.00;102963.56;4995147;28;20061;-86
2022/01/24 09:29:48;;;;;;;27.60;20.45;;;;;;;4.07;100.00;102964.53;4993014;28;20117;-87
2022/01/24 09:32:15;;;;;;;28.88;21.60;;;;;;;4.04;100.00;102962.88;5006087;28;20492;-87
2022/01/24 09:34:44;;;;;;;27.75;21.05;;;;;;;4.06;100.00;102962.81;4993936;28;20077;-88
2022/01/24 09:37:10;;;;;;;25.73;19.75;;;;;;;4.07;100.00;102961.88;5007397;28;20080;-87
2022/01/24 09:39:43;;;;;;;27.15;19.65;;;;;;;4.15;100.00;102965.03;5027065;28;20073;-88
2022/01/24 09:42:09;;;;;;;28.23;21.25;;;;;;;4.14;100.00;102970.41;4974219;28;20038;-87
2022/01/24 09:44:37;;;;;;;28.55;19.65;;;;;;;4.12;100.00;102970.50;5012281;28;20042;-87
2022/01/24 09:47:09;;;;;;;28.50;20.92;;;;;;;4.16;100.00;102961.44;5005097;28;20064;-87
2022/01/24 09:49:36;;;;;;;27.35;20.33;;;;;;;4.17;100.00;102960.53;4977721;28;20052;-89
2022/01/24 09:52:02;;;;;;;30.08;21.85;;;;;;;4.22;100.00;102961.16;4977129;28;20074;-87
2022/01/24 09:54:47;;;;;;;28.42;21.98;;;;;;;4.20;100.00;102968.34;5009597;28;20103;-88
2022/01/24 09:57:16;;;;;;;28.77;22.65;;;;;;;4.21;100.00;102964.75;5007179;28;20368;-86
2022/01/24 09:59:52;;;;;;;29.98;21.40;;;;;;;4.22;100.00;102968.28;5010441;28;20124;-87
2022/01/24 10:02:22;;;;;;;27.98;21.15;;;;;;;4.24;100.00;102959.31;4999702;28;20042;-87
2022/01/24 10:05:10;;;;;;;25.90;21.45;;;;;;;4.26;100.00;102964.56;4995242;28;20065;-87
2022/01/24 10:07:39;;;;;;;28.63;22.27;;;;;;;4.26;100.00;102967.22;5006036;28;20042;-88
2022/01/24 10:10:06;;;;;;;29.83;19.25;;;;;;;4.26;100.00;102962.75;4996756;28;20409;-87
2022/01/24 10:18:09;;;;;;;28.13;22.33;;;;;;;4.36;100.00;102962.34;5001870;28;20065;-88
2022/01/24 10:20:39;;;;;;;23.83;16.15;;;;;;;4.30;100.00;102951.03;5005086;28;20049;-88
2022/01/24 10:23:10;;;;;;;28.25;20.17;;;;;;;4.37;100.00;102953.41;5003398;28;20049;-89
2022/01/24 10:25:52;;;;;;;26.10;21.48;;;;;;;4.42;100.00;102957.59;5000397;28;20049;-87
2022/01/24 10:28:41;;;;;;;28.52;21.10;;;;;;;4.43;100.00;102951.34;5006207;28;20121;-87
2022/01/24 10:31:25;;;;;;;21.50;17.13;;;;;;;4.43;100.00;102954.00;4997271;28;20530;-88
2022/01/24 10:33:53;;;;;;;20.10;14.85;;;;;;;4.43;100.00;102956.66;4979170;28;20042;-87
2022/01/24 10:36:41;;;;;;;21.95;16.70;;;;;;;4.43;100.00;102962.00;5005375;28;20034;-87
2022/01/24 10:45:19;;;;;;;22.48;17.48;;;;;;;4.50;100.00;102950.13;5008965;28;20048;-89
2022/01/24 10:47:49;;;;;;;22.02;17.73;;;;;;;4.56;100.00;102956.09;4987206;28;20046;-88
2022/01/24 10:50:29;;;;;;;23.50;18.40;;;;;;;4.53;100.00;102954.44;4995555;28;20038;-87
2022/01/24 10:52:57;;;;;;;19.67;16.50;;;;;;;4.59;100.00;102951.47;5005581;28;20048;-86
2022/01/24 10:55:44;;;;;;;20.08;14.95;;;;;;;4.58;100.00;102949.75;5007017;28;20030;-87
2022/01/24 10:58:19;;;;;;;19.73;15.40;;;;;;;4.60;100.00;102950.53;5005649;28;20081;-87
2022/01/24 11:00:46;;;;;;;23.02;17.25;;;;;;;4.58;100.00;102951.56;4991592;28;20049;-88
2022/01/24 11:03:19;;;;;;;20.67;17.58;;;;;;;4.60;100.00;102942.56;5003434;28;20046;-88
2022/01/24 11:05:49;;;;;;;20.08;16.98;;;;;;;4.58;100.00;102947.09;5009537;28;20116;-86
2022/01/24 11:08:21;;;;;;;19.85;17.02;;;;;;;4.60;100.00;102945.22;5007430;28;20050;-88
2022/01/24 11:10:51;;;;;;;21.70;17.85;;;;;;;4.63;100.00;102950.41;4985506;28;20061;-89
2022/01/24 11:13:30;;;;;;;22.25;18.92;;;;;;;4.59;100.00;102937.31;5004260;28;20045;-88
2022/01/24 11:16:18;;;;;;;26.15;18.30;;;;;;;4.61;100.00;102938.97;4992621;28;20451;-88
2022/01/24 11:18:44;;;;;;;22.13;17.00;;;;;;;4.62;100.00;102926.53;5017263;28;20098;-87
2022/01/24 11:21:15;;;;;;;24.40;18.83;;;;;;;4.63;100.00;102928.25;4976169;28;20087;-88
2022/01/24 11:23:43;;;;;;;22.80;19.58;;;;;;;4.63;100.00;102921.16;4988665;28;20035;-87
2022/01/24 11:26:25;;;;;;;25.35;21.60;;;;;;;4.61;100.00;102920.38;5026308;28;20061;-85
2022/01/24 11:28:51;;;;;;;26.52;20.70;;;;;;;4.63;100.00;102923.81;4985941;28;20041;-89
2022/01/24 11:31:21;;;;;;;29.13;21.30;;;;;;;4.62;100.00;102916.75;5004660;28;20537;-87
2022/01/24 11:33:59;;;;;;;31.08;21.50;;;;;;;4.62;100.00;102916.75;5002100;28;20140;-88
2022/01/24 11:36:45;;;;;;;32.45;24.60;;;;;;;4.61;100.00;102915.03;5006099;28;20041;-86
2022/01/24 11:39:11;;;;;;;31.02;23.45;;;;;;;4.63;100.00;102913.19;4988022;28;20046;-88
2022/01/24 11:41:40;;;;;;;29.10;22.00;;;;;;;4.61;100.00;102927.47;5020037;28;20044;-88
2022/01/24 11:44:16;;;;;;;31.70;23.90;;;;;;;4.63;100.00;102910.53;5010952;28;20029;-88
2022/01/24 11:46:47;;;;;;;29.67;24.42;;;;;;;4.62;100.00;102902.59;4991233;28;20141;-89
2022/01/24 11:49:18;;;;;;;30.08;24.15;;;;;;;4.62;100.00;102903.47;4995159;28;20034;-87
2022/01/24 11:52:04;;;;;;;38.45;26.77;;;;;;;4.62;100.00;102905.25;4995318;28;20061;-87
2022/01/24 11:54:42;;;;;;;36.85;27.52;;;;;;;4.62;100.00;102907.91;4997812;28;20116;-88
2022/01/24 11:57:32;;;;;;;37.20;28.40;;;;;;;4.62;100.00;102905.25;5001633;28;20046;-88
2022/01/24 12:00:07;;;;;;;36.05;27.88;;;;;;;4.60;100.00;102905.31;4983362;28;20053;-88
2022/01/24 12:02:47;;;;;;;38.67;30.75;;;;;;;4.62;100.00;102902.59;5009103;28;20080;-87
2022/01/24 12:05:14;;;;;;;39.97;31.48;;;;;;;4.61;100.00;102899.09;4983599;28;20062;-88
2022/01/24 12:07:45;;;;;;;39.28;27.70;;;;;;;4.61;100.00;102903.56;4997365;28;20125;-87
2022/01/24 12:10:37;;;;;;;36.75;28.55;;;;;;;4.63;100.00;102899.00;4998052;28;20069;-88
2022/01/24 12:13:29;;;;;;;39.00;27.52;;;;;;;4.61;100.00;102904.41;4982421;28;20121;-88
2022/01/24 12:16:05;;;;;;;40.72;31.55;;;;;;;4.62;100.00;102891.97;5003260;28;20104;-89
2022/01/24 12:18:37;;;;;;;42.55;34.63;;;;;;;4.67;100.00;102890.81;4983547;28;20129;-87
2022/01/24 12:21:14;;;;;;;40.35;31.73;;;;;;;4.65;100.00;102890.00;5012285;28;20038;-89
2022/01/24 12:23:56;;;;;;;39.55;31.73;;;;;;;4.64;100.00;102882.97;4988058;28;20129;-88
2022/01/24 12:26:44;;;;;;;37.15;29.70;;;;;;;4.61;100.00;102893.78;4992012;28;20046;-87
2022/01/24 12:29:23;;;;;;;40.33;27.77;;;;;;;4.60;100.00;102893.81;5003221;28;20101;-88
2022/01/24 12:31:58;;;;;;;38.03;27.00;;;;;;;4.57;100.00;102892.19;4993634;28;20065;-88
2022/01/24 12:34:50;;;;;;;42.95;33.60;;;;;;;4.61;100.00;102896.44;5002071;28;20510;-88
2022/01/24 12:37:25;;;;;;;38.95;26.75;;;;;;;4.53;100.00;102885.28;5000470;28;20050;-87
2022/01/24 12:40:07;;;;;;;38.78;27.02;;;;;;;4.55;100.00;102888.75;4975446;28;20046;-87
2022/01/24 12:42:57;;;;;;;39.83;33.70;;;;;;;4.61;100.00;102891.09;4978479;28;20108;-87
2022/01/24 12:48:18;;;;;;;42.63;30.52;;;;;;;4.63;100.00;102896.34;5000417;28;20045;-87
2022/01/24 12:50:54;;;;;;;43.70;32.85;;;;;;;4.59;100.00;102898.28;4989860;28;20049;-88
2022/01/24 12:53:26;;;;;;;47.80;34.60;;;;;;;4.65;100.00;102905.97;5007462;28;20065;-88
2022/01/24 12:56:04;;;;;;;43.45;35.25;;;;;;;4.67;100.00;102909.44;5008121;28;20061;-88
2022/01/24 12:58:35;;;;;;;40.90;33.40;;;;;;;4.65;100.00;102905.97;4995631;28;20549;-88
2022/01/24 13:01:01;;;;;;;43.95;36.05;;;;;;;4.65;100.00;102905.97;5008954;28;20034;-89
2022/01/24 13:03:45;;;;;;;42.15;33.35;;;;;;;4.59;100.00;102906.28;4992713;28;20380;-88
2022/01/24 13:06:16;;;;;;;43.10;33.30;;;;;;;4.62;100.00;102906.13;4998728;28;20129;-87
2022/01/24 13:08:53;;;;;;;42.40;33.97;;;;;;;4.63;100.00;102896.34;4988920;28;20034;-87
2022/01/24 13:11:19;;;;;;;42.40;31.58;;;;;;;4.64;100.00;102887.44;4994599;28;20048;-86
2022/01/24 13:14:12;;;;;;;40.15;30.20;;;;;;;4.57;100.00;102891.31;5012053;28;20042;-87